sensor_id;sensor_type;location;lat;lon;timestamp;P1;durP1;ratioP1;P2;durP2;ratioP2
68089;SDS011;54880;50.986;6.990;2023-02-12T00:01:11;68.00;;;26.75;;
68089;SDS011;54880;50.986;6.990;2023-02-12T00:03:37;63.67;;;26.60;;
68089;SDS011;54880;50.986;6.990;2023-02-12T00:06:03;64.23;;;25.43;;
68089;SDS011;54880;50.986;6.990;2023-02-12T00:08:28;60.67;;;26.10;;
68089;SDS011;54880;50.986;6.990;2023-02-12T00:10:54;61.83;;;26.33;;
68089;SDS011;54880;50.986;6.990;2023-02-12T00:13:19;65.73;;;26.83;;
68089;SDS011;54880;50.986;6.990;2023-02-12T00:15:44;67.30;;;27.20;;
68089;SDS011;54880;50.986;6.990;2023-02-12T00:18:09;63.03;;;26.43;;
68089;SDS011;54880;50.986;6.990;2023-02-12T00:20:38;65.30;;;26.10;;
68089;SDS011;54880;50.986;6.990;2023-02-12T00:23:03;67.65;;;26.10;;
68089;SDS011;54880;50.986;6.990;2023-02-12T00:25:29;62.90;;;26.13;;
68089;SDS011;54880;50.986;6.990;2023-02-12T00:27:54;68.60;;;27.80;;
68089;SDS011;54880;50.986;6.990;2023-02-12T00:30:19;66.90;;;26.47;;
68089;SDS011;54880;50.986;6.990;2023-02-12T00:32:45;68.22;;;27.00;;
68089;SDS011;54880;50.986;6.990;2023-02-12T00:35:10;64.00;;;26.48;;
68089;SDS011;54880;50.986;6.990;2023-02-12T00:37:35;64.90;;;26.90;;
68089;SDS011;54880;50.986;6.990;2023-02-12T00:40:01;64.03;;;26.30;;
68089;SDS011;54880;50.986;6.990;2023-02-12T00:42:26;66.30;;;26.53;;
68089;SDS011;54880;50.986;6.990;2023-02-12T00:44:51;63.20;;;26.50;;
68089;SDS011;54880;50.986;6.990;2023-02-12T00:47:16;64.60;;;28.23;;
68089;SDS011;54880;50.986;6.990;2023-02-12T00:49:42;62.50;;;26.83;;
68089;SDS011;54880;50.986;6.990;2023-02-12T00:52:07;61.60;;;27.53;;
68089;SDS011;54880;50.986;6.990;2023-02-12T00:54:32;63.37;;;26.57;;
68089;SDS011;54880;50.986;6.990;2023-02-12T00:56:57;65.40;;;27.47;;
68089;SDS011;54880;50.986;6.990;2023-02-12T00:59:27;62.55;;;25.70;;
68089;SDS011;54880;50.986;6.990;2023-02-12T01:01:53;64.53;;;26.30;;
68089;SDS011;54880;50.986;6.990;2023-02-12T01:04:19;59.92;;;27.58;;
68089;SDS011;54880;50.986;6.990;2023-02-12T01:06:45;68.50;;;27.93;;
68089;SDS011;54880;50.986;6.990;2023-02-12T01:09:11;66.25;;;28.15;;
68089;SDS011;54880;50.986;6.990;2023-02-12T01:11:36;65.27;;;25.90;;
68089;SDS011;54880;50.986;6.990;2023-02-12T01:14:01;62.30;;;25.17;;
68089;SDS011;54880;50.986;6.990;2023-02-12T01:16:27;62.78;;;27.27;;
68089;SDS011;54880;50.986;6.990;2023-02-12T01:18:52;63.03;;;26.57;;
68089;SDS011;54880;50.986;6.990;2023-02-12T01:21:19;62.23;;;27.07;;
68089;SDS011;54880;50.986;6.990;2023-02-12T01:23:44;65.38;;;27.17;;
68089;SDS011;54880;50.986;6.990;2023-02-12T01:26:10;61.97;;;28.20;;
68089;SDS011;54880;50.986;6.990;2023-02-12T01:28:37;60.75;;;26.58;;
68089;SDS011;54880;50.986;6.990;2023-02-12T01:31:06;60.78;;;26.13;;
68089;SDS011;54880;50.986;6.990;2023-02-12T01:33:31;69.50;;;28.08;;
68089;SDS011;54880;50.986;6.990;2023-02-12T01:35:57;60.53;;;25.97;;
68089;SDS011;54880;50.986;6.990;2023-02-12T01:38:22;61.43;;;25.87;;
68089;SDS011;54880;50.986;6.990;2023-02-12T01:40:47;62.13;;;28.13;;
68089;SDS011;54880;50.986;6.990;2023-02-12T01:43:12;64.40;;;28.13;;
68089;SDS011;54880;50.986;6.990;2023-02-12T01:45:48;63.60;;;26.83;;
68089;SDS011;54880;50.986;6.990;2023-02-12T01:48:14;62.20;;;25.88;;
68089;SDS011;54880;50.986;6.990;2023-02-12T01:50:42;61.37;;;25.87;;
68089;SDS011;54880;50.986;6.990;2023-02-12T01:53:07;67.90;;;26.60;;
68089;SDS011;54880;50.986;6.990;2023-02-12T01:55:33;61.97;;;26.38;;
68089;SDS011;54880;50.986;6.990;2023-02-12T01:57:59;64.23;;;25.67;;
68089;SDS011;54880;50.986;6.990;2023-02-12T02:00:25;59.72;;;24.42;;
68089;SDS011;54880;50.986;6.990;2023-02-12T02:02:52;59.10;;;25.55;;
68089;SDS011;54880;50.986;6.990;2023-02-12T02:05:23;62.87;;;26.10;;
68089;SDS011;54880;50.986;6.990;2023-02-12T02:07:48;54.83;;;24.02;;
68089;SDS011;54880;50.986;6.990;2023-02-12T02:10:13;59.57;;;26.13;;
68089;SDS011;54880;50.986;6.990;2023-02-12T02:12:39;57.63;;;25.97;;
68089;SDS011;54880;50.986;6.990;2023-02-12T02:15:24;59.28;;;25.77;;
68089;SDS011;54880;50.986;6.990;2023-02-12T02:17:51;60.53;;;25.80;;
68089;SDS011;54880;50.986;6.990;2023-02-12T02:30:49;60.00;;;26.10;;
68089;SDS011;54880;50.986;6.990;2023-02-12T02:33:26;57.17;;;24.17;;
68089;SDS011;54880;50.986;6.990;2023-02-12T02:35:56;62.47;;;25.73;;
68089;SDS011;54880;50.986;6.990;2023-02-12T02:41:01;63.78;;;25.52;;
68089;SDS011;54880;50.986;6.990;2023-02-12T02:44:01;60.03;;;25.73;;
68089;SDS011;54880;50.986;6.990;2023-02-12T02:46:21;62.83;;;25.90;;
68089;SDS011;54880;50.986;6.990;2023-02-12T02:48:49;60.60;;;25.10;;
68089;SDS011;54880;50.986;6.990;2023-02-12T02:51:20;59.70;;;23.97;;
68089;SDS011;54880;50.986;6.990;2023-02-12T02:53:48;55.80;;;22.30;;
68089;SDS011;54880;50.986;6.990;2023-02-12T02:56:16;55.88;;;24.10;;
68089;SDS011;54880;50.986;6.990;2023-02-12T02:58:51;59.55;;;25.05;;
68089;SDS011;54880;50.986;6.990;2023-02-12T03:01:21;58.08;;;24.88;;
68089;SDS011;54880;50.986;6.990;2023-02-12T03:04:01;56.17;;;24.33;;
68089;SDS011;54880;50.986;6.990;2023-02-12T03:08:55;53.00;;;23.13;;
68089;SDS011;54880;50.986;6.990;2023-02-12T03:11:22;55.13;;;23.02;;
68089;SDS011;54880;50.986;6.990;2023-02-12T03:13:49;57.88;;;24.38;;
68089;SDS011;54880;50.986;6.990;2023-02-12T03:16:17;53.88;;;23.23;;
68089;SDS011;54880;50.986;6.990;2023-02-12T03:18:54;55.00;;;24.10;;
68089;SDS011;54880;50.986;6.990;2023-02-12T03:21:23;56.72;;;22.30;;
68089;SDS011;54880;50.986;6.990;2023-02-12T03:24:14;53.38;;;21.77;;
68089;SDS011;54880;50.986;6.990;2023-02-12T03:26:46;59.17;;;24.25;;
68089;SDS011;54880;50.986;6.990;2023-02-12T03:29:13;55.35;;;23.60;;
68089;SDS011;54880;50.986;6.990;2023-02-12T03:31:59;53.43;;;24.20;;
68089;SDS011;54880;50.986;6.990;2023-02-12T03:48:12;48.33;;;21.63;;
68089;SDS011;54880;50.986;6.990;2023-02-12T03:53:13;51.43;;;23.67;;
68089;SDS011;54880;50.986;6.990;2023-02-12T03:55:39;50.50;;;21.27;;
68089;SDS011;54880;50.986;6.990;2023-02-12T03:58:07;47.80;;;21.27;;
68089;SDS011;54880;50.986;6.990;2023-02-12T04:00:33;53.63;;;22.92;;
68089;SDS011;54880;50.986;6.990;2023-02-12T04:03:00;47.55;;;21.00;;
68089;SDS011;54880;50.986;6.990;2023-02-12T04:05:27;49.83;;;21.70;;
68089;SDS011;54880;50.986;6.990;2023-02-12T04:07:52;48.35;;;21.77;;
68089;SDS011;54880;50.986;6.990;2023-02-12T04:10:20;47.90;;;21.73;;
68089;SDS011;54880;50.986;6.990;2023-02-12T04:12:59;53.95;;;21.77;;
68089;SDS011;54880;50.986;6.990;2023-02-12T04:15:42;49.17;;;22.30;;
68089;SDS011;54880;50.986;6.990;2023-02-12T04:18:18;49.97;;;21.25;;
68089;SDS011;54880;50.986;6.990;2023-02-12T04:21:00;50.30;;;21.10;;
68089;SDS011;54880;50.986;6.990;2023-02-12T04:26:26;44.70;;;20.67;;
68089;SDS011;54880;50.986;6.990;2023-02-12T04:34:01;47.83;;;20.80;;
68089;SDS011;54880;50.986;6.990;2023-02-12T04:36:32;44.95;;;20.02;;
68089;SDS011;54880;50.986;6.990;2023-02-12T04:38:59;47.53;;;22.17;;
68089;SDS011;54880;50.986;6.990;2023-02-12T04:41:25;48.05;;;20.85;;
68089;SDS011;54880;50.986;6.990;2023-02-12T04:43:51;46.78;;;21.58;;
68089;SDS011;54880;50.986;6.990;2023-02-12T04:46:16;44.93;;;21.07;;
68089;SDS011;54880;50.986;6.990;2023-02-12T04:48:59;45.37;;;21.33;;
68089;SDS011;54880;50.986;6.990;2023-02-12T04:51:24;44.53;;;21.40;;
68089;SDS011;54880;50.986;6.990;2023-02-12T04:53:50;45.03;;;21.03;;
68089;SDS011;54880;50.986;6.990;2023-02-12T04:56:15;45.47;;;20.87;;
68089;SDS011;54880;50.986;6.990;2023-02-12T04:58:40;45.80;;;19.73;;
68089;SDS011;54880;50.986;6.990;2023-02-12T05:01:06;47.27;;;20.37;;
68089;SDS011;54880;50.986;6.990;2023-02-12T05:03:31;45.63;;;22.27;;
68089;SDS011;54880;50.986;6.990;2023-02-12T05:06:01;44.77;;;21.17;;
68089;SDS011;54880;50.986;6.990;2023-02-12T05:08:26;49.57;;;20.83;;
68089;SDS011;54880;50.986;6.990;2023-02-12T05:10:51;51.20;;;22.13;;
68089;SDS011;54880;50.986;6.990;2023-02-12T05:13:17;47.05;;;21.80;;
68089;SDS011;54880;50.986;6.990;2023-02-12T05:15:42;44.42;;;21.67;;
68089;SDS011;54880;50.986;6.990;2023-02-12T05:18:07;43.50;;;20.20;;
68089;SDS011;54880;50.986;6.990;2023-02-12T05:20:32;47.23;;;21.10;;
68089;SDS011;54880;50.986;6.990;2023-02-12T05:22:58;51.25;;;21.35;;
68089;SDS011;54880;50.986;6.990;2023-02-12T05:25:23;47.83;;;20.58;;
68089;SDS011;54880;50.986;6.990;2023-02-12T05:27:48;47.92;;;20.80;;
68089;SDS011;54880;50.986;6.990;2023-02-12T05:30:13;46.75;;;21.02;;
68089;SDS011;54880;50.986;6.990;2023-02-12T05:32:39;46.57;;;20.97;;
68089;SDS011;54880;50.986;6.990;2023-02-12T05:35:05;44.33;;;19.73;;
68089;SDS011;54880;50.986;6.990;2023-02-12T05:37:32;45.00;;;20.95;;
68089;SDS011;54880;50.986;6.990;2023-02-12T05:39:58;45.20;;;21.47;;
68089;SDS011;54880;50.986;6.990;2023-02-12T05:42:24;44.37;;;19.63;;
68089;SDS011;54880;50.986;6.990;2023-02-12T05:44:49;42.20;;;20.70;;
68089;SDS011;54880;50.986;6.990;2023-02-12T05:47:14;45.50;;;21.03;;
68089;SDS011;54880;50.986;6.990;2023-02-12T05:49:39;42.80;;;21.13;;
68089;SDS011;54880;50.986;6.990;2023-02-12T05:52:05;47.35;;;22.10;;
68089;SDS011;54880;50.986;6.990;2023-02-12T05:54:30;45.90;;;21.48;;
68089;SDS011;54880;50.986;6.990;2023-02-12T05:56:55;43.93;;;20.13;;
68089;SDS011;54880;50.986;6.990;2023-02-12T05:59:21;43.67;;;20.87;;
68089;SDS011;54880;50.986;6.990;2023-02-12T06:01:47;43.50;;;20.25;;
68089;SDS011;54880;50.986;6.990;2023-02-12T06:04:14;48.65;;;21.77;;
68089;SDS011;54880;50.986;6.990;2023-02-12T06:06:39;45.30;;;21.25;;
68089;SDS011;54880;50.986;6.990;2023-02-12T06:09:06;46.55;;;21.08;;
68089;SDS011;54880;50.986;6.990;2023-02-12T06:11:31;45.20;;;21.27;;
68089;SDS011;54880;50.986;6.990;2023-02-12T06:13:56;44.93;;;21.83;;
68089;SDS011;54880;50.986;6.990;2023-02-12T06:16:23;38.93;;;20.00;;
68089;SDS011;54880;50.986;6.990;2023-02-12T06:18:49;48.13;;;21.33;;
68089;SDS011;54880;50.986;6.990;2023-02-12T06:21:15;46.50;;;21.87;;
68089;SDS011;54880;50.986;6.990;2023-02-12T06:23:40;46.75;;;21.15;;
68089;SDS011;54880;50.986;6.990;2023-02-12T06:26:06;46.07;;;21.00;;
68089;SDS011;54880;50.986;6.990;2023-02-12T06:28:31;48.43;;;22.60;;
68089;SDS011;54880;50.986;6.990;2023-02-12T06:30:56;44.43;;;20.30;;
68089;SDS011;54880;50.986;6.990;2023-02-12T06:33:21;44.37;;;21.47;;
68089;SDS011;54880;50.986;6.990;2023-02-12T06:35:47;46.70;;;21.07;;
68089;SDS011;54880;50.986;6.990;2023-02-12T06:38:12;49.00;;;20.73;;
68089;SDS011;54880;50.986;6.990;2023-02-12T06:40:38;46.80;;;21.17;;
68089;SDS011;54880;50.986;6.990;2023-02-12T06:43:03;49.03;;;21.27;;
68089;SDS011;54880;50.986;6.990;2023-02-12T06:45:28;47.45;;;22.20;;
68089;SDS011;54880;50.986;6.990;2023-02-12T06:47:53;49.20;;;21.77;;
68089;SDS011;54880;50.986;6.990;2023-02-12T06:50:19;46.17;;;22.00;;
68089;SDS011;54880;50.986;6.990;2023-02-12T06:52:44;48.63;;;21.40;;
68089;SDS011;54880;50.986;6.990;2023-02-12T06:55:09;44.57;;;21.70;;
68089;SDS011;54880;50.986;6.990;2023-02-12T06:57:35;48.77;;;22.50;;
68089;SDS011;54880;50.986;6.990;2023-02-12T07:00:00;46.23;;;20.43;;
68089;SDS011;54880;50.986;6.990;2023-02-12T07:02:25;46.33;;;21.80;;
68089;SDS011;54880;50.986;6.990;2023-02-12T07:04:50;42.87;;;20.63;;
68089;SDS011;54880;50.986;6.990;2023-02-12T07:07:16;45.47;;;22.97;;
68089;SDS011;54880;50.986;6.990;2023-02-12T07:09:41;47.53;;;21.17;;
68089;SDS011;54880;50.986;6.990;2023-02-12T07:12:06;52.37;;;22.80;;
68089;SDS011;54880;50.986;6.990;2023-02-12T07:14:32;48.20;;;21.77;;
68089;SDS011;54880;50.986;6.990;2023-02-12T07:16:57;46.73;;;21.33;;
68089;SDS011;54880;50.986;6.990;2023-02-12T07:19:23;45.70;;;22.47;;
68089;SDS011;54880;50.986;6.990;2023-02-12T07:21:48;45.05;;;21.52;;
68089;SDS011;54880;50.986;6.990;2023-02-12T07:24:14;43.70;;;21.87;;
68089;SDS011;54880;50.986;6.990;2023-02-12T07:26:39;46.03;;;21.75;;
68089;SDS011;54880;50.986;6.990;2023-02-12T07:29:05;46.73;;;22.73;;
68089;SDS011;54880;50.986;6.990;2023-02-12T07:31:30;57.70;;;23.63;;
68089;SDS011;54880;50.986;6.990;2023-02-12T07:33:56;44.80;;;22.10;;
68089;SDS011;54880;50.986;6.990;2023-02-12T07:36:22;47.58;;;20.95;;
68089;SDS011;54880;50.986;6.990;2023-02-12T07:38:47;45.63;;;21.10;;
68089;SDS011;54880;50.986;6.990;2023-02-12T07:43:39;46.93;;;23.13;;
68089;SDS011;54880;50.986;6.990;2023-02-12T07:46:05;49.03;;;22.63;;
68089;SDS011;54880;50.986;6.990;2023-02-12T07:48:30;48.03;;;21.70;;
68089;SDS011;54880;50.986;6.990;2023-02-12T07:50:55;47.70;;;23.43;;
68089;SDS011;54880;50.986;6.990;2023-02-12T07:53:20;45.92;;;21.55;;
68089;SDS011;54880;50.986;6.990;2023-02-12T07:55:46;43.13;;;21.98;;
68089;SDS011;54880;50.986;6.990;2023-02-12T07:58:11;43.92;;;21.90;;
68089;SDS011;54880;50.986;6.990;2023-02-12T08:00:36;48.40;;;22.87;;
68089;SDS011;54880;50.986;6.990;2023-02-12T08:03:02;44.50;;;20.97;;
68089;SDS011;54880;50.986;6.990;2023-02-12T08:05:27;49.93;;;22.47;;
68089;SDS011;54880;50.986;6.990;2023-02-12T08:07:52;47.70;;;22.80;;
68089;SDS011;54880;50.986;6.990;2023-02-12T08:10:17;49.47;;;22.33;;
68089;SDS011;54880;50.986;6.990;2023-02-12T08:12:46;48.83;;;22.45;;
68089;SDS011;54880;50.986;6.990;2023-02-12T08:15:11;47.97;;;22.17;;
68089;SDS011;54880;50.986;6.990;2023-02-12T08:17:36;51.03;;;22.63;;
68089;SDS011;54880;50.986;6.990;2023-02-12T08:20:02;48.30;;;22.63;;
68089;SDS011;54880;50.986;6.990;2023-02-12T08:22:27;48.80;;;22.80;;
68089;SDS011;54880;50.986;6.990;2023-02-12T08:24:52;48.83;;;22.03;;
68089;SDS011;54880;50.986;6.990;2023-02-12T08:27:17;46.47;;;21.83;;
68089;SDS011;54880;50.986;6.990;2023-02-12T08:29:43;50.47;;;23.13;;
68089;SDS011;54880;50.986;6.990;2023-02-12T08:32:11;48.40;;;22.35;;
68089;SDS011;54880;50.986;6.990;2023-02-12T08:34:40;48.33;;;21.77;;
68089;SDS011;54880;50.986;6.990;2023-02-12T08:37:11;45.28;;;20.95;;
68089;SDS011;54880;50.986;6.990;2023-02-12T08:39:36;48.17;;;23.30;;
68089;SDS011;54880;50.986;6.990;2023-02-12T08:42:02;45.67;;;22.60;;
68089;SDS011;54880;50.986;6.990;2023-02-12T08:44:27;49.33;;;22.00;;
68089;SDS011;54880;50.986;6.990;2023-02-12T08:46:53;48.63;;;23.00;;
68089;SDS011;54880;50.986;6.990;2023-02-12T08:49:21;50.85;;;23.50;;
68089;SDS011;54880;50.986;6.990;2023-02-12T08:51:47;53.53;;;23.45;;
68089;SDS011;54880;50.986;6.990;2023-02-12T08:54:14;52.13;;;22.52;;
68089;SDS011;54880;50.986;6.990;2023-02-12T08:56:39;55.53;;;24.90;;
68089;SDS011;54880;50.986;6.990;2023-02-12T08:59:05;57.07;;;24.20;;
68089;SDS011;54880;50.986;6.990;2023-02-12T09:01:32;55.40;;;23.50;;
68089;SDS011;54880;50.986;6.990;2023-02-12T09:03:57;53.33;;;24.23;;
68089;SDS011;54880;50.986;6.990;2023-02-12T09:06:23;50.60;;;23.93;;
68089;SDS011;54880;50.986;6.990;2023-02-12T09:08:48;60.57;;;24.70;;
68089;SDS011;54880;50.986;6.990;2023-02-12T09:11:17;55.30;;;23.80;;
68089;SDS011;54880;50.986;6.990;2023-02-12T09:13:44;55.88;;;24.25;;
68089;SDS011;54880;50.986;6.990;2023-02-12T09:16:09;55.75;;;24.17;;
68089;SDS011;54880;50.986;6.990;2023-02-12T09:18:35;56.67;;;24.97;;
68089;SDS011;54880;50.986;6.990;2023-02-12T09:21:01;58.42;;;25.17;;
68089;SDS011;54880;50.986;6.990;2023-02-12T09:23:27;57.17;;;25.57;;
68089;SDS011;54880;50.986;6.990;2023-02-12T09:25:52;58.80;;;25.15;;
68089;SDS011;54880;50.986;6.990;2023-02-12T09:28:17;58.87;;;26.27;;
68089;SDS011;54880;50.986;6.990;2023-02-12T09:30:42;63.73;;;25.20;;
68089;SDS011;54880;50.986;6.990;2023-02-12T09:33:08;59.43;;;25.47;;
68089;SDS011;54880;50.986;6.990;2023-02-12T09:35:34;60.57;;;26.23;;
68089;SDS011;54880;50.986;6.990;2023-02-12T09:38:00;63.38;;;26.27;;
68089;SDS011;54880;50.986;6.990;2023-02-12T09:45:39;60.93;;;26.00;;
68089;SDS011;54880;50.986;6.990;2023-02-12T09:53:12;57.22;;;24.30;;
68089;SDS011;54880;50.986;6.990;2023-02-12T09:55:38;62.20;;;25.35;;
68089;SDS011;54880;50.986;6.990;2023-02-12T09:58:06;54.83;;;25.10;;
68089;SDS011;54880;50.986;6.990;2023-02-12T10:00:35;56.20;;;24.40;;
68089;SDS011;54880;50.986;6.990;2023-02-12T10:03:01;58.83;;;25.23;;
68089;SDS011;54880;50.986;6.990;2023-02-12T10:05:31;60.87;;;25.33;;
68089;SDS011;54880;50.986;6.990;2023-02-12T10:11:11;54.50;;;24.63;;
68089;SDS011;54880;50.986;6.990;2023-02-12T10:26:20;53.47;;;23.85;;
68089;SDS011;54880;50.986;6.990;2023-02-12T10:28:46;52.53;;;22.77;;
68089;SDS011;54880;50.986;6.990;2023-02-12T10:31:33;53.13;;;24.05;;
68089;SDS011;54880;50.986;6.990;2023-02-12T10:34:00;50.70;;;22.37;;
68089;SDS011;54880;50.986;6.990;2023-02-12T10:36:44;49.67;;;21.92;;
68089;SDS011;54880;50.986;6.990;2023-02-12T10:41:38;46.25;;;22.70;;
68089;SDS011;54880;50.986;6.990;2023-02-12T10:44:04;46.50;;;21.10;;
68089;SDS011;54880;50.986;6.990;2023-02-12T10:46:30;47.30;;;21.23;;
68089;SDS011;54880;50.986;6.990;2023-02-12T10:48:56;51.27;;;21.30;;
68089;SDS011;54880;50.986;6.990;2023-02-12T10:56:52;45.42;;;19.52;;
68089;SDS011;54880;50.986;6.990;2023-02-12T10:59:21;45.17;;;20.13;;
68089;SDS011;54880;50.986;6.990;2023-02-12T11:01:47;47.72;;;20.73;;
68089;SDS011;54880;50.986;6.990;2023-02-12T11:06:57;40.63;;;18.20;;
68089;SDS011;54880;50.986;6.990;2023-02-12T11:09:27;41.08;;;18.65;;
68089;SDS011;54880;50.986;6.990;2023-02-12T11:11:52;43.60;;;18.40;;
68089;SDS011;54880;50.986;6.990;2023-02-12T11:14:18;43.47;;;18.60;;
68089;SDS011;54880;50.986;6.990;2023-02-12T11:16:55;39.90;;;16.95;;
68089;SDS011;54880;50.986;6.990;2023-02-12T11:19:22;35.20;;;16.05;;
68089;SDS011;54880;50.986;6.990;2023-02-12T11:21:48;39.28;;;16.88;;
68089;SDS011;54880;50.986;6.990;2023-02-12T11:26:48;35.08;;;16.45;;
68089;SDS011;54880;50.986;6.990;2023-02-12T11:29:20;35.95;;;15.95;;
68089;SDS011;54880;50.986;6.990;2023-02-12T11:32:04;34.63;;;14.87;;
68089;SDS011;54880;50.986;6.990;2023-02-12T11:34:32;32.50;;;15.13;;
68089;SDS011;54880;50.986;6.990;2023-02-12T11:36:58;28.80;;;13.55;;
68089;SDS011;54880;50.986;6.990;2023-02-12T11:41:49;25.93;;;12.00;;
68089;SDS011;54880;50.986;6.990;2023-02-12T11:44:23;27.85;;;11.85;;
68089;SDS011;54880;50.986;6.990;2023-02-12T11:46:51;30.38;;;12.00;;
68089;SDS011;54880;50.986;6.990;2023-02-12T11:49:26;24.90;;;11.63;;
68089;SDS011;54880;50.986;6.990;2023-02-12T11:51:52;24.80;;;11.52;;
68089;SDS011;54880;50.986;6.990;2023-02-12T11:54:19;27.40;;;12.07;;
68089;SDS011;54880;50.986;6.990;2023-02-12T11:56:46;30.50;;;12.73;;
68089;SDS011;54880;50.986;6.990;2023-02-12T11:59:32;30.53;;;12.43;;
68089;SDS011;54880;50.986;6.990;2023-02-12T12:02:00;29.25;;;12.77;;
68089;SDS011;54880;50.986;6.990;2023-02-12T12:04:26;26.45;;;12.00;;
68089;SDS011;54880;50.986;6.990;2023-02-12T12:14:58;27.27;;;12.75;;
68089;SDS011;54880;50.986;6.990;2023-02-12T12:18:07;28.50;;;12.55;;
68089;SDS011;54880;50.986;6.990;2023-02-12T12:23:41;34.05;;;13.93;;
68089;SDS011;54880;50.986;6.990;2023-02-12T12:26:24;27.10;;;12.97;;
68089;SDS011;54880;50.986;6.990;2023-02-12T12:28:57;29.60;;;12.65;;
68089;SDS011;54880;50.986;6.990;2023-02-12T12:31:33;26.33;;;11.20;;
68089;SDS011;54880;50.986;6.990;2023-02-12T12:34:07;24.95;;;10.77;;
68089;SDS011;54880;50.986;6.990;2023-02-12T12:36:37;24.83;;;10.95;;
68089;SDS011;54880;50.986;6.990;2023-02-12T12:47:04;26.20;;;10.90;;
68089;SDS011;54880;50.986;6.990;2023-02-12T13:10:49;27.10;;;11.02;;
68089;SDS011;54880;50.986;6.990;2023-02-12T13:13:34;27.58;;;11.68;;
68089;SDS011;54880;50.986;6.990;2023-02-12T13:21:37;27.30;;;12.13;;
68089;SDS011;54880;50.986;6.990;2023-02-12T13:24:51;24.90;;;10.90;;
68089;SDS011;54880;50.986;6.990;2023-02-12T13:26:55;26.02;;;11.50;;
68089;SDS011;54880;50.986;6.990;2023-02-12T13:29:23;24.25;;;10.65;;
68089;SDS011;54880;50.986;6.990;2023-02-12T13:32:12;24.15;;;11.80;;
68089;SDS011;54880;50.986;6.990;2023-02-12T13:34:35;31.27;;;14.10;;
68089;SDS011;54880;50.986;6.990;2023-02-12T13:37:02;26.90;;;12.15;;
68089;SDS011;54880;50.986;6.990;2023-02-12T13:39:36;31.63;;;12.07;;
68089;SDS011;54880;50.986;6.990;2023-02-12T13:47:20;26.33;;;12.73;;
68089;SDS011;54880;50.986;6.990;2023-02-12T13:49:53;29.43;;;12.80;;
68089;SDS011;54880;50.986;6.990;2023-02-12T13:57:22;30.83;;;13.73;;
68089;SDS011;54880;50.986;6.990;2023-02-12T13:59:48;27.97;;;13.43;;
68089;SDS011;54880;50.986;6.990;2023-02-12T14:04:42;27.88;;;12.57;;
68089;SDS011;54880;50.986;6.990;2023-02-12T14:07:10;30.03;;;12.30;;
68089;SDS011;54880;50.986;6.990;2023-02-12T14:12:15;29.48;;;13.10;;
68089;SDS011;54880;50.986;6.990;2023-02-12T14:14:42;28.77;;;12.75;;
68089;SDS011;54880;50.986;6.990;2023-02-12T14:20:06;28.80;;;12.57;;
68089;SDS011;54880;50.986;6.990;2023-02-12T14:24:59;30.67;;;14.40;;
68089;SDS011;54880;50.986;6.990;2023-02-12T14:27:33;30.55;;;14.02;;
68089;SDS011;54880;50.986;6.990;2023-02-12T14:30:00;30.63;;;12.85;;
68089;SDS011;54880;50.986;6.990;2023-02-12T14:36:11;28.90;;;13.63;;
68089;SDS011;54880;50.986;6.990;2023-02-12T14:37:56;27.27;;;12.50;;
68089;SDS011;54880;50.986;6.990;2023-02-12T14:43:01;33.88;;;13.63;;
68089;SDS011;54880;50.986;6.990;2023-02-12T14:45:28;28.42;;;13.85;;
68089;SDS011;54880;50.986;6.990;2023-02-12T14:47:54;31.33;;;13.90;;
68089;SDS011;54880;50.986;6.990;2023-02-12T14:50:28;32.30;;;13.83;;
68089;SDS011;54880;50.986;6.990;2023-02-12T14:52:59;31.45;;;14.25;;
68089;SDS011;54880;50.986;6.990;2023-02-12T14:55:31;31.50;;;14.13;;
68089;SDS011;54880;50.986;6.990;2023-02-12T14:58:05;28.45;;;12.98;;
68089;SDS011;54880;50.986;6.990;2023-02-12T15:00:39;29.73;;;13.32;;
68089;SDS011;54880;50.986;6.990;2023-02-12T15:05:48;31.67;;;14.07;;
68089;SDS011;54880;50.986;6.990;2023-02-12T15:10:53;28.73;;;14.52;;
68089;SDS011;54880;50.986;6.990;2023-02-12T15:15:49;30.63;;;14.57;;
68089;SDS011;54880;50.986;6.990;2023-02-12T15:18:29;30.23;;;13.57;;
68089;SDS011;54880;50.986;6.990;2023-02-12T15:23:45;28.00;;;12.90;;
68089;SDS011;54880;50.986;6.990;2023-02-12T15:26:17;31.40;;;13.73;;
68089;SDS011;54880;50.986;6.990;2023-02-12T15:28:46;29.83;;;12.60;;
68089;SDS011;54880;50.986;6.990;2023-02-12T15:31:17;27.27;;;12.25;;
68089;SDS011;54880;50.986;6.990;2023-02-12T15:33:47;25.17;;;11.95;;
68089;SDS011;54880;50.986;6.990;2023-02-12T15:36:20;27.15;;;12.25;;
68089;SDS011;54880;50.986;6.990;2023-02-12T15:39:07;27.80;;;12.88;;
68089;SDS011;54880;50.986;6.990;2023-02-12T15:43:57;24.80;;;12.10;;
68089;SDS011;54880;50.986;6.990;2023-02-12T15:46:23;25.67;;;11.60;;
68089;SDS011;54880;50.986;6.990;2023-02-12T15:48:48;27.53;;;11.97;;
68089;SDS011;54880;50.986;6.990;2023-02-12T15:53:54;27.10;;;13.25;;
68089;SDS011;54880;50.986;6.990;2023-02-12T15:56:21;25.35;;;12.55;;
68089;SDS011;54880;50.986;6.990;2023-02-12T15:58:47;29.38;;;12.73;;
68089;SDS011;54880;50.986;6.990;2023-02-12T16:01:14;27.17;;;12.33;;
68089;SDS011;54880;50.986;6.990;2023-02-12T16:03:40;25.02;;;11.85;;
68089;SDS011;54880;50.986;6.990;2023-02-12T16:06:10;26.53;;;11.40;;
68089;SDS011;54880;50.986;6.990;2023-02-12T16:08:38;25.67;;;11.93;;
68089;SDS011;54880;50.986;6.990;2023-02-12T16:11:04;29.67;;;12.15;;
68089;SDS011;54880;50.986;6.990;2023-02-12T16:13:42;26.90;;;12.80;;
68089;SDS011;54880;50.986;6.990;2023-02-12T16:18:37;24.38;;;11.73;;
68089;SDS011;54880;50.986;6.990;2023-02-12T16:21:09;26.75;;;11.82;;
68089;SDS011;54880;50.986;6.990;2023-02-12T16:23:36;26.63;;;11.77;;
68089;SDS011;54880;50.986;6.990;2023-02-12T16:26:01;23.57;;;11.40;;
68089;SDS011;54880;50.986;6.990;2023-02-12T16:28:27;27.33;;;11.63;;
68089;SDS011;54880;50.986;6.990;2023-02-12T16:30:55;25.75;;;10.80;;
68089;SDS011;54880;50.986;6.990;2023-02-12T16:33:42;25.33;;;10.88;;
68089;SDS011;54880;50.986;6.990;2023-02-12T16:36:14;26.87;;;11.20;;
68089;SDS011;54880;50.986;6.990;2023-02-12T16:38:43;22.83;;;10.20;;
68089;SDS011;54880;50.986;6.990;2023-02-12T16:46:23;23.17;;;11.80;;
68089;SDS011;54880;50.986;6.990;2023-02-12T16:48:52;23.80;;;11.37;;
68089;SDS011;54880;50.986;6.990;2023-02-12T16:51:31;26.48;;;12.57;;
68089;SDS011;54880;50.986;6.990;2023-02-12T16:53:57;27.42;;;12.98;;
68089;SDS011;54880;50.986;6.990;2023-02-12T16:56:24;26.48;;;13.07;;
68089;SDS011;54880;50.986;6.990;2023-02-12T16:58:51;24.98;;;13.02;;
68089;SDS011;54880;50.986;6.990;2023-02-12T17:01:29;22.13;;;11.03;;
68089;SDS011;54880;50.986;6.990;2023-02-12T17:03:55;22.60;;;11.73;;
68089;SDS011;54880;50.986;6.990;2023-02-12T17:06:26;22.90;;;10.65;;
68089;SDS011;54880;50.986;6.990;2023-02-12T17:08:51;23.73;;;11.27;;
68089;SDS011;54880;50.986;6.990;2023-02-12T17:11:18;23.50;;;10.67;;
68089;SDS011;54880;50.986;6.990;2023-02-12T17:13:47;23.42;;;10.18;;
68089;SDS011;54880;50.986;6.990;2023-02-12T17:16:12;24.40;;;11.32;;
68089;SDS011;54880;50.986;6.990;2023-02-12T17:18:38;24.17;;;12.03;;
68089;SDS011;54880;50.986;6.990;2023-02-12T17:21:04;24.87;;;12.13;;
68089;SDS011;54880;50.986;6.990;2023-02-12T17:23:30;21.75;;;11.00;;
68089;SDS011;54880;50.986;6.990;2023-02-12T17:25:56;21.90;;;10.83;;